Terminal Aerodrome Forecast
Issued by NWS

Home | Current Version | Previous Version | Graphics & Text | Print | Product List | Glossary On
Versions: 1 2 3 4 5 6 7 8 9 10 11 12 13 14 15 16 17 18 19 20
000
FTUS43 KIWX 202339
TAFSBN
TAF
KSBN 202339Z 2100/2124 21005KT P6SM BKN120
      TEMPO 2102/2104 P6SM -RA BKN070
     FM210500 16004KT P6SM VCTS SCT050CB BKN120
      TEMPO 2106/2109 5SM -SHRA BR BKN050
     FM211000 18004KT P6SM SCT040 BKN090
     FM211800 22007KT P6SM SCT050 BKN250=

USA.gov is the U.S. government's official web portal to all federal, state and local government web resources and services.